Time;durP1;ratioP1;P1;durP2;ratioP2;P2;SDS_P1;SDS_P2;PMS_P1;PMS_P2;Temp;Humidity;BMP_temperature;BMP_pressure;BME280_temperature;BME280_humidity;BME280_pressure;Samples;Min_cycle;Max_cycle;Signal;HPM_P1;HPM_P2
2021/01/29 00:00:38;;;;;;;3.03;1.03;;;9.20;99.90;;;;;;5076534;28;20216;-68
2021/01/29 00:03:08;;;;;;;2.50;1.20;;;9.20;99.90;;;;;;5098610;27;20448;-67
2021/01/29 00:05:39;;;;;;;3.20;0.90;;;9.20;99.90;;;;;;5100087;28;20822;-69
2021/01/29 00:08:05;;;;;;;1.17;1.00;;;9.20;99.90;;;;;;5099439;27;20444;-67
2021/01/29 00:10:31;;;;;;;0.77;0.70;;;9.20;99.90;;;;;;5098454;27;21864;-68
2021/01/29 00:12:57;;;;;;;0.40;0.40;;;9.20;99.90;;;;;;5065342;28;20463;-67
2021/01/29 00:15:23;;;;;;;1.00;0.77;;;9.20;99.90;;;;;;5083641;28;20452;-67
2021/01/29 00:17:49;;;;;;;0.60;0.60;;;9.20;99.90;;;;;;5073291;27;20813;-70
2021/01/29 00:20:20;;;;;;;1.07;0.93;;;9.20;99.90;;;;;;5081473;28;20453;-71
2021/01/29 00:22:47;;;;;;;1.70;0.60;;;9.20;99.90;;;;;;5097275;27;20472;-72
2021/01/29 00:25:18;;;;;;;0.70;0.70;;;9.20;99.90;;;;;;5064653;28;20452;-71
2021/01/29 00:27:43;;;;;;;1.30;0.50;;;9.20;99.90;;;;;;5067758;27;20449;-74
2021/01/29 00:30:13;;;;;;;0.80;0.80;;;9.20;99.90;;;;;;5070357;28;20874;-74
2021/01/29 00:32:39;;;;;;;0.77;0.77;;;9.20;99.90;;;;;;5051545;28;20453;-74
2021/01/29 00:35:06;;;;;;;0.73;0.60;;;9.20;99.90;;;;;;5065786;28;20456;-74
2021/01/29 00:37:32;;;;;;;0.80;0.60;;;9.20;99.90;;;;;;5038583;28;20491;-74
2021/01/29 00:39:58;;;;;;;0.57;0.57;;;9.20;99.90;;;;;;5063248;27;20563;-71
2021/01/29 00:42:23;;;;;;;1.53;1.00;;;9.20;99.90;;;;;;5054233;28;20255;-71
2021/01/29 00:44:49;;;;;;;0.70;0.70;;;9.20;99.90;;;;;;5068728;28;20338;-71
2021/01/29 00:47:15;;;;;;;0.80;0.73;;;9.20;99.90;;;;;;5070314;28;20221;-71
2021/01/29 00:49:41;;;;;;;0.87;0.87;;;9.20;99.90;;;;;;5048244;28;20342;-71
2021/01/29 00:52:07;;;;;;;0.73;0.70;;;9.20;99.90;;;;;;5049706;28;20628;-71
2021/01/29 00:54:33;;;;;;;0.90;0.80;;;9.20;99.90;;;;;;5046813;28;20453;-71
2021/01/29 00:56:59;;;;;;;1.87;1.07;;;9.20;99.90;;;;;;5051970;28;20785;-71
2021/01/29 00:59:25;;;;;;;2.83;0.73;;;9.20;99.90;;;;;;5064816;28;20463;-71
2021/01/29 01:02:06;;;;;;;1.20;0.80;;;9.20;99.90;;;;;;5082756;28;20222;-71
2021/01/29 01:04:32;;;;;;;1.33;1.07;;;9.20;99.90;;;;;;5082579;28;20514;-71
2021/01/29 01:06:58;;;;;;;1.07;0.97;;;9.20;99.90;;;;;;5065996;28;20571;-71
2021/01/29 01:10:04;;;;;;;0.97;0.77;;;9.20;99.90;;;;;;5051798;28;20233;-71
2021/01/29 01:12:50;;;;;;;2.20;0.83;;;9.20;99.90;;;;;;5083932;28;20456;-71
2021/01/29 01:15:26;;;;;;;1.27;0.93;;;9.20;99.90;;;;;;5091605;28;20448;-71
2021/01/29 01:18:00;;;;;;;1.73;1.17;;;9.20;99.90;;;;;;5097890;27;20448;-71
2021/01/29 01:20:49;;;;;;;1.17;0.80;;;9.20;99.90;;;;;;5093344;28;20447;-72
2021/01/29 01:23:16;;;;;;;0.93;0.93;;;9.20;99.90;;;;;;5098442;28;20452;-71
2021/01/29 01:25:45;;;;;;;1.03;0.87;;;9.10;99.90;;;;;;5081323;27;20466;-71
2021/01/29 01:28:22;;;;;;;1.00;0.90;;;9.20;99.90;;;;;;5081249;28;21041;-71
2021/01/29 01:31:02;;;;;;;1.43;0.83;;;9.20;99.90;;;;;;5066434;28;20522;-71
2021/01/29 01:33:32;;;;;;;0.93;0.90;;;9.20;99.90;;;;;;5056039;28;20449;-71
2021/01/29 01:36:13;;;;;;;0.87;0.87;;;9.20;99.90;;;;;;5057050;28;20463;-71
2021/01/29 01:38:44;;;;;;;0.83;0.67;;;9.20;99.90;;;;;;5100342;28;20548;-72
2021/01/29 01:41:10;;;;;;;0.63;0.60;;;9.20;99.90;;;;;;5047620;28;20524;-72
2021/01/29 01:43:53;;;;;;;1.67;0.70;;;9.20;99.90;;;;;;5079944;28;20259;-71
2021/01/29 01:46:35;;;;;;;1.23;0.50;;;9.20;99.90;;;;;;5094296;28;20460;-71
2021/01/29 01:49:31;;;;;;;1.73;0.80;;;9.20;99.90;;;;;;5044352;28;20558;-71
2021/01/29 01:52:38;;;;;;;1.63;0.90;;;9.20;99.90;;;;;;5099591;27;20444;-72
2021/01/29 01:55:31;;;;;;;0.70;0.70;;;9.20;99.90;;;;;;5087427;28;21071;-71
2021/01/29 01:58:26;;;;;;;0.70;0.70;;;9.20;99.90;;;;;;5043966;28;20461;-71
2021/01/29 02:01:11;;;;;;;1.40;0.63;;;9.20;99.90;;;;;;5052962;28;20509;-71
2021/01/29 02:03:58;;;;;;;1.73;0.80;;;9.20;99.90;;;;;;5053763;28;20444;-71
2021/01/29 02:07:10;;;;;;;0.70;0.67;;;9.20;99.90;;;;;;5067079;28;20469;-72
2021/01/29 02:09:58;;;;;;;0.70;0.70;;;9.20;99.90;;;;;;5099947;27;20521;-72
2021/01/29 02:12:24;;;;;;;0.80;0.80;;;9.20;99.90;;;;;;5083653;28;20965;-71
2021/01/29 02:15:09;;;;;;;2.60;1.03;;;9.20;99.90;;;;;;5083448;27;20462;-71
2021/01/29 02:18:12;;;;;;;3.57;1.90;;;9.20;99.90;;;;;;5077956;28;20445;-71
2021/01/29 02:21:22;;;;;;;4.10;2.40;;;9.20;99.90;;;;;;5048958;28;21001;-71
2021/01/29 02:24:38;;;;;;;2.17;1.87;;;9.20;99.90;;;;;;5093657;27;20539;-71
2021/01/29 02:27:45;;;;;;;4.53;2.37;;;9.20;99.90;;;;;;5095574;27;20452;-72
2021/01/29 02:31:09;;;;;;;3.03;2.70;;;9.20;99.90;;;;;;5083881;28;20448;-72
2021/01/29 02:34:15;;;;;;;5.60;3.70;;;9.20;99.90;;;;;;5002005;28;20532;-71
2021/01/29 02:36:48;;;;;;;3.27;2.10;;;9.20;99.90;;;;;;5097854;28;20479;-71
2021/01/29 02:39:20;;;;;;;5.03;3.17;;;9.20;99.90;;;;;;5081860;28;20449;-71
2021/01/29 02:42:26;;;;;;;7.10;3.40;;;9.30;99.90;;;;;;5099226;28;20218;-71
2021/01/29 02:45:19;;;;;;;4.07;2.80;;;9.30;99.90;;;;;;5084669;28;20501;-72
2021/01/29 02:48:38;;;;;;;4.97;2.77;;;9.20;99.90;;;;;;5101892;27;20472;-71
2021/01/29 02:51:37;;;;;;;5.80;3.00;;;9.20;99.90;;;;;;5100211;28;20459;-71
2021/01/29 02:54:40;;;;;;;3.00;2.00;;;9.30;99.90;;;;;;5100988;28;20459;-71
2021/01/29 02:57:43;;;;;;;2.90;1.73;;;9.20;99.90;;;;;;5088755;27;20465;-71
2021/01/29 03:00:51;;;;;;;3.20;2.37;;;9.30;99.90;;;;;;5085566;27;20512;-71
2021/01/29 03:03:26;;;;;;;2.23;2.03;;;9.30;99.90;;;;;;5083839;28;20531;-71
2021/01/29 03:06:17;;;;;;;3.73;2.63;;;9.20;99.90;;;;;;5084996;27;20448;-71
2021/01/29 03:08:50;;;;;;;2.20;2.00;;;9.30;99.90;;;;;;5100486;27;20817;-72
2021/01/29 03:12:05;;;;;;;1.73;1.63;;;9.30;99.90;;;;;;5099530;28;20467;-71
2021/01/29 03:15:01;;;;;;;2.80;2.07;;;9.30;99.90;;;;;;5094509;28;21012;-71
2021/01/29 03:17:49;;;;;;;3.40;2.30;;;9.30;99.90;;;;;;5091782;28;20452;-72
2021/01/29 03:20:56;;;;;;;3.30;1.90;;;9.30;99.90;;;;;;5092913;28;20552;-71
2021/01/29 03:23:50;;;;;;;3.67;2.30;;;9.30;99.90;;;;;;5101766;28;20459;-71
2021/01/29 03:26:39;;;;;;;2.90;2.00;;;9.30;99.90;;;;;;5100108;28;20878;-71
2021/01/29 03:29:28;;;;;;;2.30;1.90;;;9.30;99.90;;;;;;5085874;27;20544;-71
2021/01/29 03:32:14;;;;;;;2.80;2.23;;;9.30;99.90;;;;;;5093114;27;20508;-71
2021/01/29 03:35:16;;;;;;;3.10;2.10;;;9.30;99.90;;;;;;5085915;28;20451;-71
2021/01/29 03:38:35;;;;;;;2.60;1.97;;;9.30;99.90;;;;;;5101598;28;20459;-71
2021/01/29 03:41:29;;;;;;;1.40;1.30;;;9.30;99.90;;;;;;5098420;27;20483;-72
2021/01/29 03:44:17;;;;;;;1.53;1.20;;;9.30;99.90;;;;;;5100334;28;20455;-71
2021/01/29 03:47:27;;;;;;;2.30;1.30;;;9.30;99.90;;;;;;5080439;28;20861;-68
2021/01/29 03:50:37;;;;;;;1.43;1.20;;;9.30;99.90;;;;;;5099731;27;20459;-69
2021/01/29 03:53:34;;;;;;;1.40;1.20;;;9.30;99.90;;;;;;5097837;28;20455;-69
2021/01/29 03:56:40;;;;;;;0.70;0.67;;;9.30;99.90;;;;;;5083228;27;20460;-69
2021/01/29 03:59:47;;;;;;;4.07;1.30;;;9.30;99.90;;;;;;5100787;27;20584;-69
2021/01/29 04:02:56;;;;;;;2.40;1.23;;;9.40;99.90;;;;;;5096643;28;20454;-69
2021/01/29 04:06:00;;;;;;;1.20;1.10;;;9.40;99.90;;;;;;5078596;27;20517;-69
2021/01/29 04:09:10;;;;;;;1.60;0.97;;;9.40;99.90;;;;;;5093544;28;20511;-69
2021/01/29 04:12:00;;;;;;;0.90;0.70;;;9.40;99.90;;;;;;5087072;28;20491;-69
2021/01/29 04:15:10;;;;;;;0.73;0.73;;;9.40;99.90;;;;;;5082040;28;20449;-69
2021/01/29 04:17:42;;;;;;;3.60;0.80;;;9.40;99.90;;;;;;5050914;28;21007;-69
2021/01/29 04:20:31;;;;;;;1.90;1.00;;;9.40;99.90;;;;;;5064603;28;20491;-69
2021/01/29 04:23:00;;;;;;;0.70;0.70;;;9.40;99.90;;;;;;5061253;27;20445;-69
2021/01/29 04:25:31;;;;;;;0.50;0.50;;;9.40;99.90;;;;;;5099127;28;21081;-69
2021/01/29 04:28:04;;;;;;;0.67;0.53;;;9.40;99.90;;;;;;5100500;27;20494;-69
2021/01/29 04:30:32;;;;;;;0.93;0.70;;;9.40;99.90;;;;;;5095698;28;20457;-69
2021/01/29 04:33:12;;;;;;;0.57;0.57;;;9.40;99.90;;;;;;5082207;28;21071;-69
2021/01/29 04:35:39;;;;;;;0.90;0.83;;;9.40;99.90;;;;;;5082788;28;20441;-69
2021/01/29 04:38:28;;;;;;;2.23;0.70;;;9.40;99.90;;;;;;5081860;28;20513;-69
2021/01/29 04:41:00;;;;;;;0.63;0.63;;;9.40;99.90;;;;;;5072337;28;21004;-70
2021/01/29 04:44:03;;;;;;;0.60;0.60;;;9.40;99.90;;;;;;5098762;28;20455;-69
2021/01/29 04:46:47;;;;;;;0.60;0.60;;;9.40;99.90;;;;;;5098618;28;20450;-69
2021/01/29 04:49:30;;;;;;;1.10;0.63;;;9.40;99.90;;;;;;5080693;28;21002;-68
2021/01/29 04:52:23;;;;;;;0.60;0.60;;;9.40;99.90;;;;;;5098352;28;20459;-69
2021/01/29 04:55:10;;;;;;;0.50;0.50;;;9.50;99.90;;;;;;5098967;28;20458;-70
2021/01/29 04:57:55;;;;;;;0.57;0.50;;;9.50;99.90;;;;;;5076437;28;20464;-68
2021/01/29 05:01:34;;;;;;;0.60;0.60;;;9.50;99.90;;;;;;5091804;28;20514;-69
2021/01/29 05:05:03;;;;;;;2.40;0.50;;;9.50;99.90;;;;;;5089223;27;20455;-69
2021/01/29 05:08:01;;;;;;;0.50;0.50;;;9.50;99.90;;;;;;5098172;28;20459;-69
2021/01/29 05:11:33;;;;;;;0.90;0.50;;;9.50;99.90;;;;;;5082059;28;20903;-69
2021/01/29 05:14:12;;;;;;;0.60;0.40;;;9.50;99.90;;;;;;5098063;28;20492;-69
2021/01/29 05:16:53;;;;;;;0.80;0.80;;;9.50;99.90;;;;;;5091999;27;20452;-69
2021/01/29 05:19:28;;;;;;;0.60;0.47;;;9.50;99.90;;;;;;5098079;28;20453;-69
2021/01/29 05:22:21;;;;;;;0.43;0.43;;;9.60;99.90;;;;;;5087817;27;20440;-69
2021/01/29 05:25:29;;;;;;;0.40;0.40;;;9.60;99.90;;;;;;5108650;28;20452;-70
2021/01/29 05:28:05;;;;;;;0.40;0.40;;;9.60;99.90;;;;;;5092085;27;20497;-69
2021/01/29 05:30:58;;;;;;;0.60;0.50;;;9.60;99.90;;;;;;5109023;28;20490;-69
2021/01/29 05:33:29;;;;;;;0.43;0.43;;;9.60;99.90;;;;;;5092185;28;20980;-69
2021/01/29 05:36:19;;;;;;;0.70;0.50;;;9.60;99.90;;;;;;5092246;27;20449;-70
2021/01/29 05:39:09;;;;;;;0.63;0.60;;;9.60;99.90;;;;;;5090809;27;20460;-69
2021/01/29 05:42:05;;;;;;;0.50;0.50;;;9.60;99.90;;;;;;5085113;28;20457;-70
2021/01/29 05:45:01;;;;;;;1.30;1.20;;;9.60;99.90;;;;;;5101309;28;20444;-69
2021/01/29 05:47:45;;;;;;;1.67;1.57;;;9.70;99.90;;;;;;5091762;28;20502;-69
2021/01/29 05:50:42;;;;;;;1.97;1.87;;;9.70;99.90;;;;;;5108432;28;20492;-69
2021/01/29 05:53:29;;;;;;;1.00;1.00;;;9.70;99.90;;;;;;5088723;28;20453;-69
2021/01/29 05:56:17;;;;;;;1.17;1.17;;;9.70;99.90;;;;;;5095503;28;20463;-69
2021/01/29 05:58:49;;;;;;;1.20;1.10;;;9.70;99.90;;;;;;5088397;28;20472;-70
2021/01/29 06:01:42;;;;;;;1.20;1.17;;;9.70;99.90;;;;;;5091565;28;20452;-70
2021/01/29 06:04:29;;;;;;;1.97;1.87;;;9.70;99.90;;;;;;5101574;28;20462;-69
2021/01/29 06:07:29;;;;;;;2.20;2.10;;;9.70;99.90;;;;;;5091141;27;20539;-71
2021/01/29 06:10:10;;;;;;;1.60;1.50;;;9.80;99.90;;;;;;5105090;27;20460;-70
2021/01/29 06:12:57;;;;;;;1.40;0.60;;;9.80;99.90;;;;;;5090735;28;20444;-70
2021/01/29 06:15:54;;;;;;;0.50;0.50;;;9.80;99.90;;;;;;5111771;27;20451;-70
2021/01/29 06:18:26;;;;;;;0.40;0.40;;;9.90;99.90;;;;;;5107368;28;20460;-70
2021/01/29 06:21:00;;;;;;;1.00;0.70;;;9.90;99.90;;;;;;5110591;27;20875;-70
2021/01/29 06:24:02;;;;;;;0.40;0.33;;;9.80;99.90;;;;;;5111865;28;20447;-70
2021/01/29 06:26:43;;;;;;;0.50;0.40;;;9.80;99.90;;;;;;5094810;28;20500;-69
2021/01/29 06:29:29;;;;;;;0.40;0.30;;;9.70;99.90;;;;;;5107677;28;20452;-69
2021/01/29 06:32:32;;;;;;;0.37;0.33;;;9.70;99.90;;;;;;5094121;28;20452;-69
2021/01/29 06:35:22;;;;;;;0.40;0.40;;;9.60;99.90;;;;;;5099547;27;20445;-69
2021/01/29 06:38:02;;;;;;;0.40;0.40;;;9.60;99.90;;;;;;5092746;28;21036;-69
2021/01/29 06:40:30;;;;;;;0.30;0.27;;;9.60;99.90;;;;;;5094645;28;20968;-69
2021/01/29 06:43:26;;;;;;;0.50;0.30;;;9.50;99.90;;;;;;5094415;27;20831;-69
2021/01/29 06:46:28;;;;;;;0.40;0.30;;;9.40;99.90;;;;;;5107189;27;20452;-70
2021/01/29 06:49:12;;;;;;;0.50;0.40;;;9.40;99.90;;;;;;5090775;28;20492;-69
2021/01/29 06:52:06;;;;;;;0.40;0.30;;;9.30;99.90;;;;;;5090676;28;20476;-69
2021/01/29 06:54:59;;;;;;;0.50;0.40;;;9.20;99.90;;;;;;5091034;28;20440;-70
2021/01/29 06:57:42;;;;;;;0.30;0.30;;;9.20;99.90;;;;;;5107358;27;20459;-69
2021/01/29 07:00:10;;;;;;;0.40;0.30;;;9.20;99.90;;;;;;5103303;27;20440;-69
2021/01/29 07:02:41;;;;;;;4.87;2.80;;;9.10;99.90;;;;;;5087622;28;20446;-68
2021/01/29 07:05:43;;;;;;;4.20;2.97;;;9.10;99.90;;;;;;5108469;28;20448;-69
2021/01/29 07:08:29;;;;;;;1.37;1.23;;;9.00;99.90;;;;;;5051888;28;20445;-69
2021/01/29 07:11:09;;;;;;;1.30;1.20;;;9.00;99.90;;;;;;5088695;28;20452;-69
2021/01/29 07:13:45;;;;;;;0.70;0.70;;;8.90;99.90;;;;;;5093664;28;20440;-69
2021/01/29 07:16:35;;;;;;;0.60;0.60;;;8.90;99.90;;;;;;5093115;28;20445;-69
2021/01/29 07:19:27;;;;;;;0.80;0.80;;;8.90;99.90;;;;;;5109959;27;20528;-69
2021/01/29 07:22:17;;;;;;;0.70;0.60;;;8.80;99.90;;;;;;5087723;27;20455;-69
2021/01/29 07:25:18;;;;;;;1.50;1.40;;;8.90;99.90;;;;;;5104521;27;20463;-70
2021/01/29 07:27:59;;;;;;;0.70;0.67;;;8.80;99.90;;;;;;5092729;27;20449;-69
2021/01/29 07:31:02;;;;;;;1.30;1.20;;;8.80;99.90;;;;;;5111492;27;20464;-69
2021/01/29 07:33:52;;;;;;;1.57;1.47;;;8.80;99.90;;;;;;5093389;28;20460;-70
2021/01/29 07:36:45;;;;;;;1.93;1.73;;;8.80;99.90;;;;;;5090742;28;20507;-69
2021/01/29 07:39:16;;;;;;;2.83;1.43;;;8.80;99.90;;;;;;5094140;28;20464;-69
2021/01/29 07:42:15;;;;;;;2.00;1.07;;;8.80;99.90;;;;;;5093348;28;20452;-69
2021/01/29 07:44:56;;;;;;;2.30;1.53;;;8.80;99.90;;;;;;5093249;28;20464;-69
2021/01/29 07:47:43;;;;;;;2.20;1.30;;;8.80;99.90;;;;;;5110722;28;20456;-70
2021/01/29 07:50:29;;;;;;;1.80;1.70;;;8.70;99.90;;;;;;5110226;28;20457;-69
2021/01/29 07:53:00;;;;;;;1.70;1.23;;;8.70;99.90;;;;;;5110019;28;20475;-69
2021/01/29 07:55:39;;;;;;;3.33;1.50;;;8.80;99.90;;;;;;5110045;28;20477;-69
2021/01/29 07:58:16;;;;;;;1.50;1.10;;;8.80;99.90;;;;;;5092749;28;20600;-69
2021/01/29 08:01:08;;;;;;;4.60;1.87;;;8.80;99.90;;;;;;5076478;28;21039;-69
2021/01/29 08:03:58;;;;;;;1.83;1.07;;;8.80;99.90;;;;;;5092840;28;20445;-69
2021/01/29 08:06:45;;;;;;;1.67;1.20;;;8.80;99.90;;;;;;5109554;28;20479;-69
2021/01/29 08:09:35;;;;;;;1.50;1.13;;;8.80;99.90;;;;;;5108547;28;20467;-69
2021/01/29 08:12:06;;;;;;;1.20;1.10;;;8.80;99.90;;;;;;5089710;27;20452;-69
2021/01/29 08:14:54;;;;;;;4.43;2.57;;;8.80;99.90;;;;;;5083155;28;20459;-69
2021/01/29 08:17:51;;;;;;;7.00;2.77;;;8.90;99.90;;;;;;5108598;28;20444;-69
2021/01/29 08:20:58;;;;;;;4.07;2.67;;;8.90;99.90;;;;;;5109404;28;20455;-70
2021/01/29 08:23:43;;;;;;;3.10;2.50;;;8.90;99.90;;;;;;5077573;28;20505;-69
2021/01/29 08:26:29;;;;;;;11.17;5.60;;;8.90;99.90;;;;;;5090232;28;20460;-69
2021/01/29 08:29:17;;;;;;;16.20;7.10;;;8.90;99.90;;;;;;5105983;27;21018;-70
2021/01/29 08:32:24;;;;;;;6.00;3.70;;;8.90;99.90;;;;;;5105135;27;20444;-70
2021/01/29 08:35:20;;;;;;;2.00;1.80;;;9.00;99.90;;;;;;5107729;27;21008;-70
2021/01/29 08:38:09;;;;;;;1.30;1.20;;;9.00;99.90;;;;;;5091934;27;20812;-70
2021/01/29 08:41:00;;;;;;;1.17;0.70;;;9.00;99.90;;;;;;5067986;28;20878;-69
2021/01/29 08:43:50;;;;;;;1.03;0.80;;;9.00;99.90;;;;;;5102035;27;20448;-69
2021/01/29 08:46:58;;;;;;;1.60;1.10;;;9.00;99.90;;;;;;5091442;28;20436;-69
2021/01/29 08:49:31;;;;;;;8.10;3.40;;;9.00;99.90;;;;;;5106801;28;20456;-70
2021/01/29 08:52:31;;;;;;;10.67;5.40;;;9.00;99.90;;;;;;5086087;28;20453;-69
2021/01/29 08:55:43;;;;;;;9.83;5.50;;;9.00;99.90;;;;;;5085796;27;20465;-70
2021/01/29 08:58:31;;;;;;;4.20;3.33;;;9.00;99.90;;;;;;5105076;28;20451;-69
2021/01/29 09:01:11;;;;;;;6.43;5.27;;;9.00;99.90;;;;;;5107101;28;20456;-70
2021/01/29 09:03:43;;;;;;;6.37;4.27;;;9.00;99.90;;;;;;5090544;28;20466;-69
2021/01/29 09:06:27;;;;;;;2.93;1.20;;;9.00;99.90;;;;;;5081844;28;20452;-69
2021/01/29 09:09:02;;;;;;;0.70;0.70;;;9.00;99.90;;;;;;5090068;28;20857;-69
2021/01/29 09:11:41;;;;;;;1.20;1.03;;;9.00;99.90;;;;;;5100732;28;20523;-70
2021/01/29 09:14:31;;;;;;;8.13;1.73;;;9.00;99.90;;;;;;5107461;28;20442;-69
2021/01/29 09:17:12;;;;;;;1.83;1.53;;;9.00;99.90;;;;;;5090907;27;20554;-69
2021/01/29 09:19:44;;;;;;;2.30;1.27;;;9.00;99.90;;;;;;5091488;28;20467;-70
2021/01/29 09:22:36;;;;;;;1.00;0.87;;;9.00;99.90;;;;;;5104400;28;20470;-70
2021/01/29 09:25:29;;;;;;;0.53;0.53;;;9.00;99.90;;;;;;5106604;27;20456;-70
2021/01/29 09:27:58;;;;;;;1.23;1.00;;;9.00;99.90;;;;;;5071091;28;20441;-70
2021/01/29 09:30:29;;;;;;;4.13;2.37;;;9.00;99.90;;;;;;5086460;28;20468;-69
2021/01/29 09:33:09;;;;;;;3.70;2.43;;;8.90;99.90;;;;;;5103672;28;20540;-70
2021/01/29 09:36:13;;;;;;;5.27;1.50;;;8.90;99.90;;;;;;5103615;28;20480;-70
2021/01/29 09:38:52;;;;;;;2.70;1.80;;;8.90;99.90;;;;;;5068771;28;20485;-70
2021/01/29 09:41:36;;;;;;;2.43;1.70;;;8.90;99.90;;;;;;5093195;28;20444;-69
2021/01/29 09:44:20;;;;;;;2.83;1.50;;;8.90;99.90;;;;;;5096149;28;20461;-70
2021/01/29 09:46:46;;;;;;;3.27;1.43;;;8.90;99.90;;;;;;5094601;27;21101;-69
2021/01/29 09:49:19;;;;;;;4.27;1.37;;;8.90;99.90;;;;;;5088305;28;20520;-69
2021/01/29 09:51:57;;;;;;;5.50;1.80;;;8.90;99.90;;;;;;5085446;27;20654;-70
2021/01/29 09:54:43;;;;;;;8.43;2.00;;;9.00;99.90;;;;;;5090335;28;20453;-70
2021/01/29 09:57:26;;;;;;;1.90;1.20;;;9.00;99.90;;;;;;5107336;28;20552;-70
2021/01/29 10:00:07;;;;;;;4.10;1.17;;;9.00;99.90;;;;;;5087806;28;21152;-69
2021/01/29 10:02:40;;;;;;;2.43;1.10;;;9.00;99.90;;;;;;5102846;28;20441;-72
2021/01/29 10:05:41;;;;;;;6.50;4.40;;;9.00;99.90;;;;;;5108726;27;20448;-72
2021/01/29 10:08:11;;;;;;;8.23;5.27;;;9.00;99.90;;;;;;5058892;28;20441;-72
2021/01/29 10:11:14;;;;;;;4.60;2.93;;;9.00;99.90;;;;;;5103541;28;20976;-70
2021/01/29 10:13:52;;;;;;;6.90;2.70;;;9.00;99.90;;;;;;5095836;28;20450;-69
2021/01/29 10:16:33;;;;;;;6.40;3.57;;;9.10;99.90;;;;;;5091425;28;20462;-69
2021/01/29 10:19:41;;;;;;;5.20;2.90;;;9.10;99.90;;;;;;5106602;27;20463;-69
2021/01/29 10:22:29;;;;;;;7.30;4.23;;;9.10;99.90;;;;;;5089017;28;20471;-69
2021/01/29 10:25:17;;;;;;;5.73;3.93;;;9.10;99.90;;;;;;5110604;27;20458;-70
2021/01/29 10:27:48;;;;;;;3.40;1.90;;;9.10;99.90;;;;;;5111812;27;20456;-70
2021/01/29 10:30:22;;;;;;;2.93;1.30;;;9.10;99.90;;;;;;5087789;28;20453;-69
2021/01/29 10:33:09;;;;;;;2.50;2.30;;;9.10;99.90;;;;;;5092313;27;20451;-70
2021/01/29 10:35:48;;;;;;;11.37;3.33;;;9.20;99.90;;;;;;5097462;28;20510;-69
2021/01/29 10:38:26;;;;;;;3.50;2.73;;;9.20;99.90;;;;;;5110157;28;20460;-69
2021/01/29 10:41:18;;;;;;;5.53;2.67;;;9.20;99.90;;;;;;5092191;28;20456;-69
2021/01/29 10:43:59;;;;;;;2.33;2.07;;;9.20;99.90;;;;;;5109395;27;20464;-70
2021/01/29 10:46:45;;;;;;;4.63;3.83;;;9.20;99.90;;;;;;5073803;28;20466;-69
2021/01/29 10:49:44;;;;;;;5.80;4.50;;;9.20;99.90;;;;;;5089711;28;20987;-70
2021/01/29 10:52:29;;;;;;;2.97;2.53;;;9.30;99.90;;;;;;5103527;28;20522;-70
2021/01/29 10:54:55;;;;;;;4.23;1.70;;;9.30;99.90;;;;;;5089908;28;20449;-70
2021/01/29 10:57:25;;;;;;;1.47;1.17;;;9.30;99.90;;;;;;5092797;28;20968;-69
2021/01/29 10:59:57;;;;;;;2.10;1.00;;;9.40;99.90;;;;;;5104193;28;20541;-70
2021/01/29 11:02:46;;;;;;;6.30;1.20;;;9.40;99.90;;;;;;5108769;28;20996;-70
2021/01/29 11:05:27;;;;;;;2.13;1.00;;;9.40;99.90;;;;;;5092741;28;20505;-70
2021/01/29 11:08:02;;;;;;;2.77;1.00;;;9.40;99.90;;;;;;5109211;28;20479;-69
2021/01/29 11:10:33;;;;;;;3.20;0.70;;;9.40;99.90;;;;;;5075194;28;20479;-72
2021/01/29 11:13:24;;;;;;;1.93;0.90;;;9.50;99.90;;;;;;5073536;27;20548;-70
2021/01/29 11:16:01;;;;;;;1.73;0.53;;;9.50;99.90;;;;;;5090441;27;20482;-69
2021/01/29 11:18:31;;;;;;;0.40;0.40;;;9.60;99.90;;;;;;5091262;28;20460;-69
2021/01/29 11:21:19;;;;;;;1.63;0.63;;;9.60;99.90;;;;;;5089475;27;20817;-69
2021/01/29 11:24:08;;;;;;;1.30;0.60;;;9.60;99.90;;;;;;5089581;28;20858;-71
2021/01/29 11:26:41;;;;;;;2.20;0.90;;;9.60;99.90;;;;;;5088310;28;20475;-70
2021/01/29 11:29:31;;;;;;;0.67;0.67;;;9.70;99.90;;;;;;5090250;27;20519;-70
2021/01/29 11:32:28;;;;;;;2.37;0.90;;;9.70;99.90;;;;;;5107028;27;20452;-69
2021/01/29 11:35:34;;;;;;;1.43;0.70;;;9.70;99.90;;;;;;5106355;27;20466;-70
2021/01/29 11:38:11;;;;;;;8.63;5.40;;;9.70;99.90;;;;;;5105616;27;20440;-69
2021/01/29 11:41:02;;;;;;;6.90;4.83;;;9.70;99.90;;;;;;5100410;28;20455;-69
2021/01/29 11:43:31;;;;;;;9.60;6.17;;;9.70;99.90;;;;;;5086319;28;20470;-69
2021/01/29 11:46:15;;;;;;;8.80;4.77;;;9.70;99.90;;;;;;5103445;27;20972;-69
2021/01/29 11:49:05;;;;;;;5.13;3.63;;;9.70;99.90;;;;;;5070340;28;20472;-70
2021/01/29 11:51:51;;;;;;;5.70;3.43;;;9.70;99.90;;;;;;5087518;28;20453;-69
2021/01/29 11:54:46;;;;;;;6.77;3.67;;;9.70;99.90;;;;;;5096429;28;20581;-69
2021/01/29 11:57:40;;;;;;;7.80;5.37;;;9.70;99.90;;;;;;5109336;27;20452;-70
2021/01/29 12:00:36;;;;;;;4.33;3.93;;;9.70;99.90;;;;;;5107687;28;20452;-70
2021/01/29 12:03:29;;;;;;;2.73;1.87;;;9.70;99.90;;;;;;5088360;27;20512;-70
2021/01/29 12:06:34;;;;;;;1.90;1.20;;;9.80;99.90;;;;;;5091131;27;20440;-70
2021/01/29 12:09:06;;;;;;;1.57;1.43;;;9.80;99.90;;;;;;5108804;27;20471;-70
2021/01/29 12:11:48;;;;;;;3.20;1.57;;;9.80;99.90;;;;;;5108050;28;20600;-69
2021/01/29 12:14:34;;;;;;;4.67;2.77;;;9.80;99.90;;;;;;5087904;28;20444;-70
2021/01/29 12:17:05;;;;;;;7.47;5.10;;;9.90;99.90;;;;;;5107891;27;20445;-70
2021/01/29 12:19:38;;;;;;;5.10;3.30;;;9.90;99.90;;;;;;5091890;28;20452;-69
2021/01/29 12:22:09;;;;;;;2.43;1.67;;;9.90;99.90;;;;;;5089672;27;20440;-69
2021/01/29 12:24:49;;;;;;;3.37;3.07;;;9.90;99.90;;;;;;5108918;28;20513;-70
2021/01/29 12:27:24;;;;;;;3.07;2.53;;;9.90;99.90;;;;;;5108734;28;20459;-70
2021/01/29 12:30:20;;;;;;;2.10;1.90;;;9.90;99.90;;;;;;5105997;28;20487;-69
2021/01/29 12:33:04;;;;;;;3.30;2.80;;;10.00;99.90;;;;;;5099718;27;20484;-69
2021/01/29 12:35:42;;;;;;;2.57;2.30;;;10.00;99.90;;;;;;5106743;28;20884;-69
2021/01/29 12:38:17;;;;;;;5.33;2.03;;;10.00;99.90;;;;;;5088718;28;20452;-70
2021/01/29 12:40:53;;;;;;;3.43;1.83;;;10.00;99.90;;;;;;5103602;28;20480;-70
2021/01/29 12:43:50;;;;;;;2.43;2.30;;;10.00;99.90;;;;;;5089137;28;20480;-69
2021/01/29 12:46:31;;;;;;;1.50;1.40;;;10.00;99.90;;;;;;5087998;28;20459;-70
2021/01/29 12:49:09;;;;;;;2.37;1.57;;;10.00;99.90;;;;;;5088757;27;20464;-69
2021/01/29 12:51:46;;;;;;;1.47;1.37;;;10.10;99.90;;;;;;5107003;27;20459;-69
2021/01/29 12:54:33;;;;;;;2.03;1.70;;;10.20;99.90;;;;;;5106534;28;20456;-69
2021/01/29 12:57:21;;;;;;;2.23;2.03;;;10.20;99.90;;;;;;5105329;27;20444;-69
2021/01/29 12:59:53;;;;;;;3.63;1.17;;;10.30;99.90;;;;;;5082755;28;20483;-69
2021/01/29 13:02:45;;;;;;;2.57;1.60;;;10.30;99.90;;;;;;5105055;28;20455;-70
2021/01/29 13:05:46;;;;;;;1.00;0.93;;;10.30;99.90;;;;;;5098948;27;20445;-69
2021/01/29 13:08:34;;;;;;;1.77;1.20;;;10.30;99.90;;;;;;5095467;28;20456;-69
2021/01/29 13:10:59;;;;;;;2.67;1.30;;;10.30;99.90;;;;;;5085549;28;20957;-69
2021/01/29 13:13:45;;;;;;;2.30;1.33;;;10.30;99.90;;;;;;5089116;28;20459;-70
2021/01/29 13:16:25;;;;;;;2.97;1.23;;;10.30;99.90;;;;;;5087279;28;20215;-70
2021/01/29 13:19:01;;;;;;;2.70;1.10;;;10.20;99.90;;;;;;5086270;28;20457;-70
2021/01/29 13:21:47;;;;;;;2.10;1.73;;;10.20;99.90;;;;;;5107204;28;20448;-70
2021/01/29 13:24:27;;;;;;;1.20;1.07;;;10.20;99.90;;;;;;5091423;28;20836;-70
2021/01/29 13:26:56;;;;;;;0.70;0.67;;;10.20;99.90;;;;;;5111236;27;20482;-70
2021/01/29 13:29:31;;;;;;;0.60;0.60;;;10.20;99.90;;;;;;5112807;27;20957;-70
2021/01/29 13:32:09;;;;;;;1.10;0.87;;;10.30;99.90;;;;;;5090905;28;20461;-70
2021/01/29 13:34:40;;;;;;;3.40;0.80;;;10.40;99.90;;;;;;5087865;28;20466;-69
2021/01/29 13:37:28;;;;;;;0.93;0.83;;;10.40;99.90;;;;;;5111113;28;20539;-69
2021/01/29 13:40:09;;;;;;;1.70;1.10;;;10.40;99.90;;;;;;5093164;27;20535;-69
2021/01/29 13:42:38;;;;;;;2.40;1.70;;;10.40;99.90;;;;;;5111288;28;21033;-69
2021/01/29 13:45:03;;;;;;;5.27;1.40;;;10.50;99.90;;;;;;5060977;27;20454;-69
2021/01/29 13:47:38;;;;;;;1.77;0.80;;;10.60;99.90;;;;;;5094691;28;20464;-69
2021/01/29 13:50:32;;;;;;;5.60;1.07;;;10.70;99.90;;;;;;5073062;28;20264;-69
2021/01/29 13:53:27;;;;;;;1.67;0.87;;;10.60;99.90;;;;;;5089352;28;20459;-69
2021/01/29 13:55:57;;;;;;;1.53;1.27;;;10.60;99.90;;;;;;5083397;28;20456;-69
2021/01/29 13:58:31;;;;;;;1.40;0.90;;;10.50;99.90;;;;;;5094737;28;20475;-69
2021/01/29 14:01:01;;;;;;;5.30;0.97;;;10.50;99.90;;;;;;5101928;27;20460;-72
2021/01/29 14:03:32;;;;;;;1.57;1.03;;;10.50;99.90;;;;;;5077162;28;20940;-72
2021/01/29 14:05:58;;;;;;;11.57;6.07;;;10.40;99.90;;;;;;5110321;27;20455;-72
2021/01/29 14:08:24;;;;;;;10.63;8.17;;;10.40;99.90;;;;;;5093426;28;20945;-72
2021/01/29 14:10:56;;;;;;;28.37;12.27;;;10.40;99.90;;;;;;5109426;28;20230;-72
2021/01/29 14:13:35;;;;;;;25.33;12.07;;;10.30;99.90;;;;;;5109589;28;20523;-72
2021/01/29 14:16:55;;;;;;;17.83;9.87;;;10.40;99.90;;;;;;5110161;27;20463;-72
2021/01/29 14:19:52;;;;;;;3.47;3.17;;;10.30;99.90;;;;;;5062860;28;20452;-72
2021/01/29 14:22:41;;;;;;;1.77;1.10;;;10.30;99.90;;;;;;5105270;28;20459;-72
2021/01/29 14:25:10;;;;;;;1.10;1.00;;;10.30;99.90;;;;;;5107089;28;20467;-72
2021/01/29 14:27:54;;;;;;;0.97;0.87;;;10.20;99.90;;;;;;5108667;28;20460;-72